sensor_id;sensor_type;location;lat;lon;timestamp;pressure;altitude;pressure_sealevel;temperature;humidity
64679;BME280;51094;53.864;27.676;2022-08-21T00:02:17;99284.94;;;19.07;69.96
64679;BME280;51094;53.864;27.676;2022-08-21T00:04:44;99253.97;;;19.01;70.20
64679;BME280;51094;53.864;27.676;2022-08-21T00:07:23;99262.03;;;19.00;70.41
64679;BME280;51094;53.864;27.676;2022-08-21T00:09:51;99258.59;;;18.99;70.39
64679;BME280;51094;53.864;27.676;2022-08-21T00:12:18;99261.22;;;18.99;70.47
64679;BME280;51094;53.864;27.676;2022-08-21T00:14:45;99240.13;;;18.91;70.26
64679;BME280;51094;53.864;27.676;2022-08-21T00:17:12;99258.56;;;19.07;70.19
64679;BME280;51094;53.864;27.676;2022-08-21T00:19:38;99146.31;;;18.40;70.01
64679;BME280;51094;53.864;27.676;2022-08-21T00:22:05;99175.31;;;18.56;70.07
64679;BME280;51094;53.864;27.676;2022-08-21T00:24:32;99258.09;;;19.04;70.18
64679;BME280;51094;53.864;27.676;2022-08-21T00:26:58;99209.78;;;18.71;70.14
64679;BME280;51094;53.864;27.676;2022-08-21T00:29:25;99259.56;;;18.98;70.22
64679;BME280;51094;53.864;27.676;2022-08-21T00:31:52;99173.63;;;18.39;70.25
64679;BME280;51094;53.864;27.676;2022-08-21T00:34:18;99254.28;;;18.90;70.38
64679;BME280;51094;53.864;27.676;2022-08-21T00:36:45;99086.44;;;17.83;70.33
64679;BME280;51094;53.864;27.676;2022-08-21T00:39:12;99142.13;;;18.13;70.76
64679;BME280;51094;53.864;27.676;2022-08-21T00:41:39;99249.78;;;18.74;70.78
64679;BME280;51094;53.864;27.676;2022-08-21T00:44:11;99248.81;;;18.75;70.81
64679;BME280;51094;53.864;27.676;2022-08-21T00:46:39;99246.00;;;18.77;71.01
64679;BME280;51094;53.864;27.676;2022-08-21T00:49:07;99218.25;;;18.48;70.69
64679;BME280;51094;53.864;27.676;2022-08-21T00:51:51;99158.28;;;18.18;71.08
64679;BME280;51094;53.864;27.676;2022-08-21T00:54:22;99224.91;;;18.60;71.20
64679;BME280;51094;53.864;27.676;2022-08-21T00:56:56;99194.69;;;18.39;70.44
64679;BME280;51094;53.864;27.676;2022-08-21T00:59:27;99178.66;;;18.24;70.48
64679;BME280;51094;53.864;27.676;2022-08-21T01:01:55;99238.09;;;18.77;70.79
64679;BME280;51094;53.864;27.676;2022-08-21T01:04:23;99109.34;;;17.99;70.51
64679;BME280;51094;53.864;27.676;2022-08-21T01:06:49;99194.25;;;18.51;70.44
64679;BME280;51094;53.864;27.676;2022-08-21T01:09:18;99233.31;;;18.72;70.48
64679;BME280;51094;53.864;27.676;2022-08-21T01:11:45;99231.47;;;18.65;70.89
64679;BME280;51094;53.864;27.676;2022-08-21T01:14:13;99311.16;;;18.67;70.87
64679;BME280;51094;53.864;27.676;2022-08-21T01:16:44;99235.09;;;18.64;71.03
64679;BME280;51094;53.864;27.676;2022-08-21T01:19:12;99226.84;;;18.58;70.76
64679;BME280;51094;53.864;27.676;2022-08-21T01:21:39;99211.63;;;18.36;70.90
64679;BME280;51094;53.864;27.676;2022-08-21T01:24:06;99228.31;;;18.53;71.00
64679;BME280;51094;53.864;27.676;2022-08-21T01:26:34;99260.38;;;18.48;71.12
64679;BME280;51094;53.864;27.676;2022-08-21T01:29:16;99188.88;;;18.19;71.10
64679;BME280;51094;53.864;27.676;2022-08-21T01:31:46;99235.81;;;18.40;71.19
64679;BME280;51094;53.864;27.676;2022-08-21T01:34:13;99236.13;;;18.37;71.74
64679;BME280;51094;53.864;27.676;2022-08-21T01:36:43;99215.81;;;18.21;71.60
64679;BME280;51094;53.864;27.676;2022-08-21T01:39:10;99229.69;;;18.31;71.59
64679;BME280;51094;53.864;27.676;2022-08-21T01:41:38;99160.53;;;17.79;71.37
64679;BME280;51094;53.864;27.676;2022-08-21T01:44:04;99221.78;;;18.31;71.23
64679;BME280;51094;53.864;27.676;2022-08-21T01:46:31;99245.72;;;18.46;71.51
64679;BME280;51094;53.864;27.676;2022-08-21T01:48:58;99112.13;;;17.63;71.52
64679;BME280;51094;53.864;27.676;2022-08-21T01:51:25;99237.97;;;18.44;71.54
64679;BME280;51094;53.864;27.676;2022-08-21T01:53:52;99238.31;;;18.41;71.43
64679;BME280;51094;53.864;27.676;2022-08-21T01:56:18;99234.34;;;18.37;71.63
64679;BME280;51094;53.864;27.676;2022-08-21T01:58:46;99236.66;;;18.40;71.71
64679;BME280;51094;53.864;27.676;2022-08-21T02:01:14;99162.75;;;17.91;71.50
64679;BME280;51094;53.864;27.676;2022-08-21T02:03:41;99181.84;;;17.93;71.52
64679;BME280;51094;53.864;27.676;2022-08-21T02:06:13;99234.88;;;18.49;71.24
64679;BME280;51094;53.864;27.676;2022-08-21T02:08:41;99163.81;;;18.07;70.92
64679;BME280;51094;53.864;27.676;2022-08-21T02:11:07;99139.84;;;17.84;71.27
64679;BME280;51094;53.864;27.676;2022-08-21T02:13:34;99167.75;;;18.03;71.27
64679;BME280;51094;53.864;27.676;2022-08-21T02:16:01;99199.06;;;18.22;71.62
64679;BME280;51094;53.864;27.676;2022-08-21T02:18:27;99230.09;;;18.44;71.52
64679;BME280;51094;53.864;27.676;2022-08-21T02:20:54;99121.25;;;17.69;71.29
64679;BME280;51094;53.864;27.676;2022-08-21T02:23:23;99142.03;;;17.88;71.19
64679;BME280;51094;53.864;27.676;2022-08-21T02:25:54;99244.91;;;18.45;71.12
64679;BME280;51094;53.864;27.676;2022-08-21T02:28:21;99123.88;;;17.77;71.17
64679;BME280;51094;53.864;27.676;2022-08-21T02:30:48;99235.31;;;18.36;71.32
64679;BME280;51094;53.864;27.676;2022-08-21T02:33:16;99192.41;;;18.02;71.67
64679;BME280;51094;53.864;27.676;2022-08-21T02:35:45;99177.03;;;17.89;71.68
64679;BME280;51094;53.864;27.676;2022-08-21T02:38:16;99162.19;;;17.80;71.40
64679;BME280;51094;53.864;27.676;2022-08-21T02:40:45;99247.19;;;18.40;71.26
64679;BME280;51094;53.864;27.676;2022-08-21T02:43:17;99232.78;;;18.26;71.32
64679;BME280;51094;53.864;27.676;2022-08-21T02:45:45;99239.09;;;18.34;71.50
64679;BME280;51094;53.864;27.676;2022-08-21T02:48:15;99320.03;;;18.32;71.51
64679;BME280;51094;53.864;27.676;2022-08-21T02:50:45;99245.53;;;18.39;71.38
64679;BME280;51094;53.864;27.676;2022-08-21T02:53:13;99240.41;;;18.38;71.23
64679;BME280;51094;53.864;27.676;2022-08-21T02:55:48;99248.63;;;18.35;71.48
64679;BME280;51094;53.864;27.676;2022-08-21T02:58:18;99096.03;;;17.33;71.69
64679;BME280;51094;53.864;27.676;2022-08-21T03:00:45;99257.19;;;18.37;71.42
64679;BME280;51094;53.864;27.676;2022-08-21T03:03:12;99161.97;;;17.65;71.13
64679;BME280;51094;53.864;27.676;2022-08-21T03:05:42;99198.28;;;17.95;71.40
64679;BME280;51094;53.864;27.676;2022-08-21T03:08:11;99260.97;;;18.34;71.32
64679;BME280;51094;53.864;27.676;2022-08-21T03:10:42;99264.59;;;18.33;71.49
64679;BME280;51094;53.864;27.676;2022-08-21T03:13:09;99267.47;;;18.22;71.48
64679;BME280;51094;53.864;27.676;2022-08-21T03:15:37;99171.72;;;17.55;71.46
64679;BME280;51094;53.864;27.676;2022-08-21T03:18:04;99240.00;;;18.16;71.79
64679;BME280;51094;53.864;27.676;2022-08-21T03:20:32;99270.47;;;18.19;71.81
64679;BME280;51094;53.864;27.676;2022-08-21T03:23:00;99172.19;;;17.76;71.57
64679;BME280;51094;53.864;27.676;2022-08-21T03:25:29;99264.22;;;18.28;71.33
64679;BME280;51094;53.864;27.676;2022-08-21T03:28:08;99271.84;;;18.39;71.35
64679;BME280;51094;53.864;27.676;2022-08-21T03:30:43;99176.53;;;17.85;71.36
64679;BME280;51094;53.864;27.676;2022-08-21T03:33:11;99277.78;;;18.41;71.25
64679;BME280;51094;53.864;27.676;2022-08-21T03:35:45;99217.06;;;18.01;71.56
64679;BME280;51094;53.864;27.676;2022-08-21T03:38:13;99297.19;;;18.40;71.48
64679;BME280;51094;53.864;27.676;2022-08-21T03:40:42;99213.81;;;18.07;71.30
64679;BME280;51094;53.864;27.676;2022-08-21T03:43:09;99261.94;;;18.33;71.19
64679;BME280;51094;53.864;27.676;2022-08-21T03:45:36;99274.69;;;18.46;71.22
64679;BME280;51094;53.864;27.676;2022-08-21T03:48:04;99270.25;;;18.46;71.27
64679;BME280;51094;53.864;27.676;2022-08-21T03:50:35;99296.25;;;18.49;71.26
64679;BME280;51094;53.864;27.676;2022-08-21T03:53:08;99297.91;;;18.50;71.16
64679;BME280;51094;53.864;27.676;2022-08-21T03:55:48;99228.66;;;18.24;70.70
64679;BME280;51094;53.864;27.676;2022-08-21T03:58:16;99268.59;;;18.45;70.89
64679;BME280;51094;53.864;27.676;2022-08-21T04:00:45;99284.31;;;18.29;71.01
64679;BME280;51094;53.864;27.676;2022-08-21T04:03:12;99260.66;;;18.37;71.28
64679;BME280;51094;53.864;27.676;2022-08-21T04:05:39;99234.56;;;18.10;71.43
64679;BME280;51094;53.864;27.676;2022-08-21T04:08:07;99276.41;;;18.29;71.55
64679;BME280;51094;53.864;27.676;2022-08-21T04:10:36;99312.06;;;18.23;71.70
64679;BME280;51094;53.864;27.676;2022-08-21T04:13:04;99249.66;;;18.08;71.65
64679;BME280;51094;53.864;27.676;2022-08-21T04:15:31;99270.78;;;18.16;71.60
64679;BME280;51094;53.864;27.676;2022-08-21T04:17:58;99276.53;;;18.19;71.67
64679;BME280;51094;53.864;27.676;2022-08-21T04:20:25;99254.38;;;17.96;72.24
64679;BME280;51094;53.864;27.676;2022-08-21T04:22:52;99253.22;;;17.99;72.30
64679;BME280;51094;53.864;27.676;2022-08-21T04:25:21;99275.97;;;18.08;72.27
64679;BME280;51094;53.864;27.676;2022-08-21T04:27:48;99282.75;;;18.10;72.54
64679;BME280;51094;53.864;27.676;2022-08-21T04:30:16;99249.03;;;17.88;72.32
64679;BME280;51094;53.864;27.676;2022-08-21T04:32:48;99278.50;;;18.17;72.24
64679;BME280;51094;53.864;27.676;2022-08-21T04:35:18;99321.16;;;18.29;72.11
64679;BME280;51094;53.864;27.676;2022-08-21T04:37:48;99283.38;;;18.38;71.91
64679;BME280;51094;53.864;27.676;2022-08-21T04:40:16;99224.97;;;18.01;71.39
64679;BME280;51094;53.864;27.676;2022-08-21T04:42:50;99279.94;;;18.46;71.85
64679;BME280;51094;53.864;27.676;2022-08-21T04:45:26;99341.03;;;18.49;71.61
64679;BME280;51094;53.864;27.676;2022-08-21T04:47:55;99245.13;;;18.26;71.87
64679;BME280;51094;53.864;27.676;2022-08-21T04:50:27;99273.13;;;18.61;71.07
64679;BME280;51094;53.864;27.676;2022-08-21T04:53:04;99227.03;;;18.23;71.05
64679;BME280;51094;53.864;27.676;2022-08-21T04:55:31;99199.19;;;18.12;71.00
64679;BME280;51094;53.864;27.676;2022-08-21T04:57:59;99276.59;;;18.70;70.94
64679;BME280;51094;53.864;27.676;2022-08-21T05:00:25;99269.69;;;18.69;70.72
64679;BME280;51094;53.864;27.676;2022-08-21T05:02:53;99275.31;;;18.74;70.86
64679;BME280;51094;53.864;27.676;2022-08-21T05:05:23;99280.41;;;18.75;70.73
64679;BME280;51094;53.864;27.676;2022-08-21T05:07:51;99264.03;;;18.55;70.81
64679;BME280;51094;53.864;27.676;2022-08-21T05:10:19;99266.13;;;18.86;70.97
64679;BME280;51094;53.864;27.676;2022-08-21T05:12:46;99211.53;;;18.54;70.48
64679;BME280;51094;53.864;27.676;2022-08-21T05:15:13;99279.97;;;18.88;70.34
64679;BME280;51094;53.864;27.676;2022-08-21T05:17:41;99148.72;;;18.17;70.45
64679;BME280;51094;53.864;27.676;2022-08-21T05:20:12;99224.50;;;18.47;70.06
64679;BME280;51094;53.864;27.676;2022-08-21T05:22:40;99267.63;;;18.97;70.03
64679;BME280;51094;53.864;27.676;2022-08-21T05:25:08;99260.06;;;19.02;70.09
64679;BME280;51094;53.864;27.676;2022-08-21T05:27:37;99231.41;;;18.90;70.01
64679;BME280;51094;53.864;27.676;2022-08-21T05:30:08;99263.88;;;19.15;69.76
64679;BME280;51094;53.864;27.676;2022-08-21T05:32:35;99265.19;;;19.19;69.25
64679;BME280;51094;53.864;27.676;2022-08-21T05:35:04;99260.06;;;19.18;69.37
64679;BME280;51094;53.864;27.676;2022-08-21T05:37:31;99255.63;;;19.18;69.77
64679;BME280;51094;53.864;27.676;2022-08-21T05:39:59;99145.19;;;18.50;69.24
64679;BME280;51094;53.864;27.676;2022-08-21T05:42:45;99233.53;;;19.11;69.53
64679;BME280;51094;53.864;27.676;2022-08-21T05:45:24;99162.88;;;18.74;69.52
64679;BME280;51094;53.864;27.676;2022-08-21T05:48:09;99173.88;;;18.70;69.18
64679;BME280;51094;53.864;27.676;2022-08-21T05:50:37;99246.09;;;19.42;69.01
64679;BME280;51094;53.864;27.676;2022-08-21T05:53:05;99116.59;;;18.64;68.57
64679;BME280;51094;53.864;27.676;2022-08-21T05:55:34;99249.06;;;19.47;68.75
64679;BME280;51094;53.864;27.676;2022-08-21T05:58:02;99261.09;;;19.57;68.39
64679;BME280;51094;53.864;27.676;2022-08-21T06:00:29;99241.50;;;19.68;68.15
64679;BME280;51094;53.864;27.676;2022-08-21T06:02:56;99248.41;;;19.77;68.17
64679;BME280;51094;53.864;27.676;2022-08-21T06:05:23;99196.66;;;19.60;67.96
64679;BME280;51094;53.864;27.676;2022-08-21T06:08:03;99245.88;;;20.00;67.82
64679;BME280;51094;53.864;27.676;2022-08-21T06:10:29;99153.28;;;19.63;67.59
64679;BME280;51094;53.864;27.676;2022-08-21T06:12:56;99236.41;;;20.22;66.88
64679;BME280;51094;53.864;27.676;2022-08-21T06:15:23;99226.19;;;20.19;66.15
64679;BME280;51094;53.864;27.676;2022-08-21T06:17:50;99091.19;;;19.44;66.35
64679;BME280;51094;53.864;27.676;2022-08-21T06:20:16;99111.34;;;19.84;66.10
64679;BME280;51094;53.864;27.676;2022-08-21T06:22:43;99225.13;;;20.75;65.58
64679;BME280;51094;53.864;27.676;2022-08-21T06:25:10;99155.44;;;20.45;65.09
64679;BME280;51094;53.864;27.676;2022-08-21T06:27:37;99156.63;;;20.43;64.38
64679;BME280;51094;53.864;27.676;2022-08-21T06:30:05;99177.06;;;20.49;64.62
64679;BME280;51094;53.864;27.676;2022-08-21T06:32:32;99118.28;;;20.16;64.78
64679;BME280;51094;53.864;27.676;2022-08-21T06:34:59;99141.59;;;20.43;64.36
64679;BME280;51094;53.864;27.676;2022-08-21T06:37:25;99215.03;;;21.02;64.54
64679;BME280;51094;53.864;27.676;2022-08-21T06:39:52;99213.88;;;21.04;63.64
64679;BME280;51094;53.864;27.676;2022-08-21T06:42:19;99216.22;;;20.99;63.78
64679;BME280;51094;53.864;27.676;2022-08-21T06:44:45;99182.97;;;20.82;64.23
64679;BME280;51094;53.864;27.676;2022-08-21T06:47:12;99145.38;;;20.49;64.33
64679;BME280;51094;53.864;27.676;2022-08-21T06:49:39;99130.03;;;20.36;64.33
64679;BME280;51094;53.864;27.676;2022-08-21T06:52:10;99197.53;;;21.01;64.31
64679;BME280;51094;53.864;27.676;2022-08-21T06:54:37;99181.31;;;21.04;63.72
64679;BME280;51094;53.864;27.676;2022-08-21T06:57:04;99190.72;;;21.29;63.78
64679;BME280;51094;53.864;27.676;2022-08-21T06:59:31;99187.47;;;21.42;62.88
64679;BME280;51094;53.864;27.676;2022-08-21T07:01:59;99181.66;;;21.46;62.97
64679;BME280;51094;53.864;27.676;2022-08-21T07:04:26;99089.03;;;20.94;62.52
64679;BME280;51094;53.864;27.676;2022-08-21T07:06:52;99108.66;;;21.37;62.10
64679;BME280;51094;53.864;27.676;2022-08-21T07:09:19;99183.72;;;22.03;61.22
64679;BME280;51094;53.864;27.676;2022-08-21T07:11:52;99179.03;;;22.20;61.13
64679;BME280;51094;53.864;27.676;2022-08-21T07:14:19;99168.97;;;21.71;60.63
64679;BME280;51094;53.864;27.676;2022-08-21T07:16:47;99150.81;;;22.12;60.55
64679;BME280;51094;53.864;27.676;2022-08-21T07:19:13;99112.69;;;21.92;59.98
64679;BME280;51094;53.864;27.676;2022-08-21T07:21:40;99173.72;;;22.35;59.68
64679;BME280;51094;53.864;27.676;2022-08-21T07:24:07;99173.09;;;22.33;59.48
64679;BME280;51094;53.864;27.676;2022-08-21T07:26:34;99173.28;;;22.31;58.35
64679;BME280;51094;53.864;27.676;2022-08-21T07:29:01;99201.03;;;22.20;58.57
64679;BME280;51094;53.864;27.676;2022-08-21T07:31:28;99160.53;;;22.05;58.78
64679;BME280;51094;53.864;27.676;2022-08-21T07:33:54;99106.75;;;21.75;58.45
64679;BME280;51094;53.864;27.676;2022-08-21T07:36:21;99112.59;;;21.85;58.60
64679;BME280;51094;53.864;27.676;2022-08-21T07:38:48;99081.94;;;21.76;58.50
64679;BME280;51094;53.864;27.676;2022-08-21T07:41:21;99047.19;;;21.65;57.92
64679;BME280;51094;53.864;27.676;2022-08-21T07:43:48;99092.41;;;21.99;58.08
64679;BME280;51094;53.864;27.676;2022-08-21T07:46:19;99165.88;;;22.41;57.81
64679;BME280;51094;53.864;27.676;2022-08-21T07:48:46;99155.38;;;22.18;57.92
64679;BME280;51094;53.864;27.676;2022-08-21T07:51:14;99053.31;;;21.50;58.32
64679;BME280;51094;53.864;27.676;2022-08-21T07:53:48;99166.06;;;22.25;58.34
64679;BME280;51094;53.864;27.676;2022-08-21T07:56:15;99168.97;;;22.30;58.11
64679;BME280;51094;53.864;27.676;2022-08-21T07:58:42;99168.63;;;22.33;57.95
64679;BME280;51094;53.864;27.676;2022-08-21T08:01:08;99160.94;;;22.38;58.23
64679;BME280;51094;53.864;27.676;2022-08-21T08:03:35;99100.59;;;22.19;58.25
64679;BME280;51094;53.864;27.676;2022-08-21T08:06:02;98938.94;;;21.34;57.34
64679;BME280;51094;53.864;27.676;2022-08-21T08:08:31;98942.22;;;21.36;57.58
64679;BME280;51094;53.864;27.676;2022-08-21T08:10:59;99141.13;;;22.55;56.83
64679;BME280;51094;53.864;27.676;2022-08-21T08:13:26;99123.03;;;22.38;56.93
64679;BME280;51094;53.864;27.676;2022-08-21T08:15:53;99139.63;;;22.46;57.76
64679;BME280;51094;53.864;27.676;2022-08-21T08:18:20;99160.72;;;22.76;57.77
64679;BME280;51094;53.864;27.676;2022-08-21T08:20:46;98936.72;;;21.52;56.91
64679;BME280;51094;53.864;27.676;2022-08-21T08:23:14;99165.22;;;22.97;56.16
64679;BME280;51094;53.864;27.676;2022-08-21T08:25:41;98974.53;;;21.67;56.35
64679;BME280;51094;53.864;27.676;2022-08-21T08:28:08;99037.47;;;22.01;56.24
64679;BME280;51094;53.864;27.676;2022-08-21T08:30:44;99159.72;;;22.77;55.63
64679;BME280;51094;53.864;27.676;2022-08-21T08:33:12;99150.13;;;22.97;55.99
64679;BME280;51094;53.864;27.676;2022-08-21T08:35:40;99037.31;;;22.45;55.48
64679;BME280;51094;53.864;27.676;2022-08-21T08:38:07;99146.19;;;23.36;55.52
64679;BME280;51094;53.864;27.676;2022-08-21T08:43:13;99130.91;;;24.13;54.83
64679;BME280;51094;53.864;27.676;2022-08-21T08:45:46;99033.91;;;23.70;53.42
64679;BME280;51094;53.864;27.676;2022-08-21T08:51:11;99124.91;;;24.46;52.75
64679;BME280;51094;53.864;27.676;2022-08-21T08:53:51;99121.00;;;24.42;52.79
64679;BME280;51094;53.864;27.676;2022-08-21T08:56:22;99097.47;;;24.32;52.29
64679;BME280;51094;53.864;27.676;2022-08-21T08:58:53;99169.97;;;24.67;52.84
64679;BME280;51094;53.864;27.676;2022-08-21T09:01:22;99114.94;;;24.74;51.63
64679;BME280;51094;53.864;27.676;2022-08-21T09:03:51;99033.72;;;24.39;51.62
64679;BME280;51094;53.864;27.676;2022-08-21T09:10:12;99130.91;;;25.67;50.56
64679;BME280;51094;53.864;27.676;2022-08-21T09:13:11;99100.16;;;25.77;49.62
64679;BME280;51094;53.864;27.676;2022-08-21T09:15:54;99099.94;;;25.85;49.01
64679;BME280;51094;53.864;27.676;2022-08-21T09:21:02;99090.81;;;26.44;48.26
64679;BME280;51094;53.864;27.676;2022-08-21T09:23:54;99058.19;;;26.11;48.13
64679;BME280;51094;53.864;27.676;2022-08-21T09:26:36;99091.78;;;26.57;47.43
64679;BME280;51094;53.864;27.676;2022-08-21T09:29:11;98845.47;;;25.51;45.82
64679;BME280;51094;53.864;27.676;2022-08-21T09:31:38;99082.28;;;26.92;46.00
64679;BME280;51094;53.864;27.676;2022-08-21T09:34:07;99089.47;;;26.92;44.74
64679;BME280;51094;53.864;27.676;2022-08-21T09:36:44;99085.75;;;26.68;45.56
64679;BME280;51094;53.864;27.676;2022-08-21T09:39:21;99067.00;;;26.81;44.21
64679;BME280;51094;53.864;27.676;2022-08-21T09:41:55;99082.03;;;26.75;45.26
64679;BME280;51094;53.864;27.676;2022-08-21T09:44:28;99077.06;;;27.29;44.89
64679;BME280;51094;53.864;27.676;2022-08-21T09:46:55;98987.63;;;26.51;44.77
64679;BME280;51094;53.864;27.676;2022-08-21T09:49:36;99023.75;;;26.47;45.80
64679;BME280;51094;53.864;27.676;2022-08-21T09:52:19;99111.41;;;27.25;45.40
64679;BME280;51094;53.864;27.676;2022-08-21T09:54:51;99100.94;;;27.67;44.72
64679;BME280;51094;53.864;27.676;2022-08-21T09:57:24;99052.88;;;27.97;43.24
64679;BME280;51094;53.864;27.676;2022-08-21T10:02:48;99059.97;;;28.63;42.24
64679;BME280;51094;53.864;27.676;2022-08-21T10:05:24;99026.72;;;28.59;42.05
64679;BME280;51094;53.864;27.676;2022-08-21T10:07:52;99051.66;;;29.18;41.07
64679;BME280;51094;53.864;27.676;2022-08-21T10:10:30;99049.59;;;29.43;40.46
64679;BME280;51094;53.864;27.676;2022-08-21T10:13:00;99044.47;;;29.41;39.27
64679;BME280;51094;53.864;27.676;2022-08-21T10:18:42;99013.50;;;29.74;38.70
64679;BME280;51094;53.864;27.676;2022-08-21T10:21:17;99042.03;;;29.80;39.09
64679;BME280;51094;53.864;27.676;2022-08-21T10:24:12;99028.34;;;29.53;39.38
64679;BME280;51094;53.864;27.676;2022-08-21T10:42:52;98857.84;;;29.19;36.68
64679;BME280;51094;53.864;27.676;2022-08-21T10:45:39;99029.00;;;30.12;37.13
64679;BME280;51094;53.864;27.676;2022-08-21T10:48:28;98974.81;;;29.82;37.90
64679;BME280;51094;53.864;27.676;2022-08-21T10:51:05;98604.56;;;27.40;37.35
64679;BME280;51094;53.864;27.676;2022-08-21T10:53:55;99020.84;;;30.86;35.87
64679;BME280;51094;53.864;27.676;2022-08-21T10:56:37;99036.00;;;31.69;34.81
64679;BME280;51094;53.864;27.676;2022-08-21T10:59:26;99018.25;;;32.76;32.96
64679;BME280;51094;53.864;27.676;2022-08-21T11:02:00;98942.72;;;32.60;31.89
64679;BME280;51094;53.864;27.676;2022-08-21T11:04:50;99005.13;;;32.84;32.86
64679;BME280;51094;53.864;27.676;2022-08-21T11:07:33;98874.31;;;32.46;32.24
64679;BME280;51094;53.864;27.676;2022-08-21T11:10:14;98743.59;;;32.18;30.66
64679;BME280;51094;53.864;27.676;2022-08-21T11:12:50;99040.69;;;33.91;29.64
64679;BME280;51094;53.864;27.676;2022-08-21T11:15:38;99013.06;;;32.69;31.15
64679;BME280;51094;53.864;27.676;2022-08-21T11:18:34;99012.00;;;31.62;33.69
64679;BME280;51094;53.864;27.676;2022-08-21T11:26:39;99021.00;;;30.79;33.82
64679;BME280;51094;53.864;27.676;2022-08-21T11:29:12;99023.81;;;30.67;34.96
64679;BME280;51094;53.864;27.676;2022-08-21T11:43:21;99019.91;;;35.98;25.85
64679;BME280;51094;53.864;27.676;2022-08-21T11:45:55;99033.47;;;37.05;24.34
64679;BME280;51094;53.864;27.676;2022-08-21T11:48:45;99014.03;;;38.26;22.58
64679;BME280;51094;53.864;27.676;2022-08-21T11:51:22;99040.31;;;40.41;21.02
64679;BME280;51094;53.864;27.676;2022-08-21T11:56:37;99007.50;;;43.54;18.16
64679;BME280;51094;53.864;27.676;2022-08-21T11:59:12;99005.59;;;43.45;17.58
64679;BME280;51094;53.864;27.676;2022-08-21T12:01:43;98959.63;;;43.80;17.08
64679;BME280;51094;53.864;27.676;2022-08-21T12:04:29;99004.50;;;45.20;15.44
64679;BME280;51094;53.864;27.676;2022-08-21T12:07:10;99002.31;;;46.02;14.67
64679;BME280;51094;53.864;27.676;2022-08-21T12:09:37;98964.00;;;45.29;14.39
64679;BME280;51094;53.864;27.676;2022-08-21T12:12:09;99004.69;;;41.88;17.93
64679;BME280;51094;53.864;27.676;2022-08-21T12:14:41;99002.84;;;40.25;18.69
64679;BME280;51094;53.864;27.676;2022-08-21T12:17:19;99006.00;;;37.59;22.04
64679;BME280;51094;53.864;27.676;2022-08-21T12:19:57;99025.81;;;36.83;22.88
64679;BME280;51094;53.864;27.676;2022-08-21T12:22:37;98984.63;;;34.74;26.08
64679;BME280;51094;53.864;27.676;2022-08-21T12:25:10;98873.47;;;32.88;27.89
64679;BME280;51094;53.864;27.676;2022-08-21T12:27:50;98965.72;;;32.36;29.19
64679;BME280;51094;53.864;27.676;2022-08-21T12:30:33;99002.84;;;31.63;30.63
64679;BME280;51094;53.864;27.676;2022-08-21T12:33:31;98998.47;;;31.14;31.28
64679;BME280;51094;53.864;27.676;2022-08-21T12:36:18;99015.75;;;33.58;29.16
64679;BME280;51094;53.864;27.676;2022-08-21T12:38:58;98983.75;;;35.29;26.08
64679;BME280;51094;53.864;27.676;2022-08-21T12:52:30;99007.41;;;31.85;30.18
64679;BME280;51094;53.864;27.676;2022-08-21T12:55:05;99011.09;;;30.80;31.98
64679;BME280;51094;53.864;27.676;2022-08-21T12:57:35;99010.84;;;30.02;33.66
64679;BME280;51094;53.864;27.676;2022-08-21T13:00:06;99007.63;;;29.49;34.51
64679;BME280;51094;53.864;27.676;2022-08-21T13:02:38;99010.00;;;28.87;36.31
64679;BME280;51094;53.864;27.676;2022-08-21T13:05:26;98993.50;;;27.95;36.94
64679;BME280;51094;53.864;27.676;2022-08-21T13:07:53;99013.34;;;27.87;37.59
64679;BME280;51094;53.864;27.676;2022-08-21T13:10:26;98769.44;;;26.05;37.76
64679;BME280;51094;53.864;27.676;2022-08-21T13:12:56;99036.88;;;27.42;38.64
64679;BME280;51094;53.864;27.676;2022-08-21T13:15:30;98864.69;;;26.41;38.90
64679;BME280;51094;53.864;27.676;2022-08-21T13:18:01;98993.31;;;27.05;38.77
64679;BME280;51094;53.864;27.676;2022-08-21T13:20:35;98979.59;;;27.01;38.49
64679;BME280;51094;53.864;27.676;2022-08-21T13:23:19;98953.34;;;26.80;38.33
64679;BME280;51094;53.864;27.676;2022-08-21T13:25:46;99026.69;;;27.14;37.46
64679;BME280;51094;53.864;27.676;2022-08-21T13:28:13;98898.19;;;26.31;37.87
64679;BME280;51094;53.864;27.676;2022-08-21T13:30:47;99071.44;;;26.87;36.87
64679;BME280;51094;53.864;27.676;2022-08-21T13:33:18;98953.75;;;26.27;36.91
64679;BME280;51094;53.864;27.676;2022-08-21T13:36:09;99022.72;;;26.48;37.16
64679;BME280;51094;53.864;27.676;2022-08-21T13:38:39;99027.56;;;26.33;36.99
64679;BME280;51094;53.864;27.676;2022-08-21T13:43:49;99046.00;;;26.28;37.57
64679;BME280;51094;53.864;27.676;2022-08-21T13:46:17;98885.84;;;25.42;37.86
64679;BME280;51094;53.864;27.676;2022-08-21T13:48:46;98919.34;;;25.56;37.94
64679;BME280;51094;53.864;27.676;2022-08-21T13:51:13;99024.69;;;26.28;38.07
64679;BME280;51094;53.864;27.676;2022-08-21T13:56:07;98989.59;;;26.00;38.40
64679;BME280;51094;53.864;27.676;2022-08-21T13:58:43;99023.03;;;26.34;38.16
64679;BME280;51094;53.864;27.676;2022-08-21T14:01:32;99000.88;;;26.40;38.08
64679;BME280;51094;53.864;27.676;2022-08-21T14:06:51;98797.06;;;25.30;38.07
64679;BME280;51094;53.864;27.676;2022-08-21T14:09:30;99023.13;;;26.77;37.91
64679;BME280;51094;53.864;27.676;2022-08-21T14:12:03;98926.38;;;26.13;38.06
64679;BME280;51094;53.864;27.676;2022-08-21T14:14:48;98968.16;;;26.51;38.93
64679;BME280;51094;53.864;27.676;2022-08-21T14:17:30;99004.44;;;26.52;38.70
64679;BME280;51094;53.864;27.676;2022-08-21T14:19:59;99030.31;;;26.45;39.67
64679;BME280;51094;53.864;27.676;2022-08-21T14:22:43;98970.69;;;25.76;39.90
64679;BME280;51094;53.864;27.676;2022-08-21T14:25:15;99033.28;;;26.30;40.39